Time;durP1;ratioP1;P1;durP2;ratioP2;P2;SDS_P1;SDS_P2;PMS_P1;PMS_P2;Temp;Humidity;BMP_temperature;BMP_pressure;BME280_temperature;BME280_humidity;BME280_pressure;Samples;Min_cycle;Max_cycle;Signal;HPM_P1;HPM_P2
2021/10/09 00:01:53;;;;;;;64.28;14.35;;;5.40;99.90;;;;;;5017813;28;20489;-69
2021/10/09 00:04:20;;;;;;;78.78;13.93;;;5.30;99.90;;;;;;5017513;28;20117;-69
2021/10/09 00:06:48;;;;;;;66.53;15.93;;;5.30;99.90;;;;;;5017617;28;20018;-69
2021/10/09 00:09:15;;;;;;;46.20;13.88;;;5.30;99.90;;;;;;5017831;28;20014;-69
2021/10/09 00:11:43;;;;;;;30.45;14.25;;;5.30;99.90;;;;;;5016625;28;20156;-69
2021/10/09 00:14:13;;;;;;;45.28;15.15;;;5.30;99.90;;;;;;5016409;28;20430;-69
2021/10/09 00:16:43;;;;;;;50.72;14.48;;;5.30;99.90;;;;;;5016948;28;20418;-69
2021/10/09 00:19:11;;;;;;;106.13;17.15;;;5.30;99.90;;;;;;5015720;28;20038;-69
2021/10/09 00:21:43;;;;;;;55.38;13.82;;;5.40;99.90;;;;;;5016619;28;20151;-69
2021/10/09 00:24:17;;;;;;;61.53;14.60;;;5.40;99.90;;;;;;5016393;28;20041;-69
2021/10/09 00:26:44;;;;;;;39.75;13.38;;;5.30;99.90;;;;;;5015417;28;20384;-69
2021/10/09 00:29:13;;;;;;;31.55;12.48;;;5.30;99.90;;;;;;5024581;28;20112;-69
2021/10/09 00:31:41;;;;;;;47.20;14.68;;;5.30;99.90;;;;;;5036259;28;20041;-69
2021/10/09 00:34:08;;;;;;;26.52;12.20;;;5.30;99.90;;;;;;5036853;28;20025;-68
2021/10/09 00:36:37;;;;;;;26.58;11.98;;;5.30;99.90;;;;;;5018593;28;20025;-69
2021/10/09 00:39:04;;;;;;;43.33;13.07;;;5.30;99.90;;;;;;5036589;28;20047;-68
2021/10/09 00:41:32;;;;;;;51.85;13.00;;;5.30;99.90;;;;;;5037670;28;20052;-69
2021/10/09 00:44:13;;;;;;;55.15;13.80;;;5.30;99.90;;;;;;5038530;28;20385;-69
2021/10/09 00:46:41;;;;;;;55.95;15.43;;;5.30;99.90;;;;;;5040993;28;20033;-68
2021/10/09 00:49:16;;;;;;;50.03;14.18;;;5.40;99.90;;;;;;5023016;28;20481;-69
2021/10/09 00:51:48;;;;;;;45.42;13.23;;;5.40;99.90;;;;;;5023159;28;20025;-69
2021/10/09 00:54:16;;;;;;;37.45;12.85;;;5.40;99.90;;;;;;5022996;28;20491;-69
2021/10/09 00:56:47;;;;;;;37.10;13.23;;;5.40;99.90;;;;;;5040471;28;20037;-69
2021/10/09 00:59:15;;;;;;;36.72;11.32;;;5.40;99.90;;;;;;5040616;28;20030;-68
2021/10/09 01:01:42;;;;;;;26.02;11.73;;;5.50;99.90;;;;;;5040265;28;20049;-69
2021/10/09 01:04:10;;;;;;;36.15;11.25;;;5.40;99.90;;;;;;5039361;28;20108;-69
2021/10/09 01:06:38;;;;;;;44.58;11.88;;;5.40;99.90;;;;;;5040007;28;20040;-69
2021/10/09 01:09:06;;;;;;;77.35;13.52;;;5.40;99.90;;;;;;5039930;28;20045;-69
2021/10/09 01:11:34;;;;;;;44.70;12.52;;;5.40;99.90;;;;;;5040338;28;20017;-69
2021/10/09 01:14:01;;;;;;;37.22;12.30;;;5.40;99.90;;;;;;5021685;28;20302;-69
2021/10/09 01:16:29;;;;;;;77.38;14.05;;;5.40;99.90;;;;;;5039848;28;20025;-69
2021/10/09 01:18:58;;;;;;;55.95;12.60;;;5.40;99.90;;;;;;5039470;28;20043;-68
2021/10/09 01:21:27;;;;;;;61.53;13.88;;;5.40;99.90;;;;;;5039772;28;20025;-69
2021/10/09 01:23:54;;;;;;;59.10;13.15;;;5.40;99.90;;;;;;5040492;28;20367;-69
2021/10/09 01:26:21;;;;;;;53.05;14.80;;;5.50;99.90;;;;;;5040029;28;20397;-69
2021/10/09 01:28:52;;;;;;;54.47;15.27;;;5.50;99.90;;;;;;5039720;28;20042;-69
2021/10/09 01:31:23;;;;;;;91.47;15.07;;;5.50;99.90;;;;;;5040626;28;20401;-69
2021/10/09 01:33:51;;;;;;;86.43;12.88;;;5.50;99.90;;;;;;5022193;28;20033;-68
2021/10/09 01:36:20;;;;;;;50.15;12.18;;;5.50;99.90;;;;;;5022264;28;20040;-68
2021/10/09 01:38:52;;;;;;;35.72;11.45;;;5.60;99.90;;;;;;5040050;28;20027;-69
2021/10/09 01:41:19;;;;;;;43.88;13.07;;;5.50;99.90;;;;;;5039477;28;20022;-69
2021/10/09 01:43:47;;;;;;;50.03;10.80;;;5.50;99.90;;;;;;5038950;28;20040;-69
2021/10/09 01:46:14;;;;;;;58.20;12.32;;;5.50;99.90;;;;;;5039245;28;20402;-68
2021/10/09 01:48:42;;;;;;;49.83;13.38;;;5.50;99.90;;;;;;5021028;28;20049;-68
2021/10/09 01:51:11;;;;;;;48.25;12.20;;;5.40;99.90;;;;;;5038792;28;20041;-69
2021/10/09 01:53:40;;;;;;;24.77;11.40;;;5.40;99.90;;;;;;5038861;28;20022;-69
2021/10/09 01:56:08;;;;;;;33.00;11.23;;;5.40;99.90;;;;;;5037879;28;20031;-69
2021/10/09 01:58:36;;;;;;;51.13;13.10;;;5.40;99.90;;;;;;5039034;28;20018;-69
2021/10/09 02:01:04;;;;;;;34.97;11.32;;;5.40;99.90;;;;;;5038418;28;20021;-69
2021/10/09 02:03:31;;;;;;;28.88;11.93;;;5.40;99.90;;;;;;5020978;28;20048;-69
2021/10/09 02:05:58;;;;;;;24.92;11.70;;;5.40;99.90;;;;;;5039819;28;20021;-68
2021/10/09 02:08:26;;;;;;;32.72;11.45;;;5.40;99.90;;;;;;5039156;28;20028;-69
2021/10/09 02:10:58;;;;;;;54.53;13.05;;;5.50;99.90;;;;;;5021531;28;20022;-68
2021/10/09 02:13:40;;;;;;;27.98;11.90;;;5.50;99.90;;;;;;5039344;28;20084;-69
2021/10/09 02:18:47;;;;;;;39.63;11.23;;;5.50;99.90;;;;;;5038963;28;20030;-69
2021/10/09 02:26:48;;;;;;;41.00;13.85;;;5.60;99.90;;;;;;5038301;28;20080;-69
2021/10/09 02:29:17;;;;;;;82.45;16.27;;;5.60;99.90;;;;;;5038127;28;20045;-69
2021/10/09 02:31:45;;;;;;;47.35;13.75;;;5.60;99.90;;;;;;5038012;28;20056;-69
2021/10/09 02:34:14;;;;;;;53.88;12.88;;;5.70;99.90;;;;;;5037705;28;20053;-69
2021/10/09 02:36:41;;;;;;;34.33;14.15;;;5.70;99.90;;;;;;5020137;28;20408;-69
2021/10/09 02:39:09;;;;;;;46.00;14.05;;;5.80;99.90;;;;;;5038250;28;20345;-69
2021/10/09 02:41:36;;;;;;;50.78;14.25;;;5.80;99.90;;;;;;5037703;28;20025;-68
2021/10/09 02:44:04;;;;;;;54.22;12.98;;;5.80;99.90;;;;;;5037491;28;20022;-69
2021/10/09 02:46:32;;;;;;;43.42;12.30;;;5.80;99.90;;;;;;5020460;28;20413;-69
2021/10/09 02:49:00;;;;;;;54.85;13.75;;;5.80;99.90;;;;;;5038663;28;20021;-69
2021/10/09 02:51:28;;;;;;;58.42;13.00;;;5.80;99.90;;;;;;5038464;28;20021;-69
2021/10/09 02:53:55;;;;;;;76.10;15.07;;;5.80;99.90;;;;;;5038383;28;20026;-68
2021/10/09 02:56:22;;;;;;;52.42;14.18;;;5.80;99.90;;;;;;5039005;28;20026;-69
2021/10/09 02:58:50;;;;;;;91.22;17.25;;;5.80;99.90;;;;;;5038810;28;20026;-69
2021/10/09 03:01:18;;;;;;;52.33;14.70;;;5.90;99.90;;;;;;5020725;28;20048;-69
2021/10/09 03:03:45;;;;;;;108.20;17.83;;;5.90;99.90;;;;;;5020503;28;20471;-69
2021/10/09 03:06:13;;;;;;;119.43;17.98;;;6.00;99.90;;;;;;5038437;28;20322;-69
2021/10/09 03:08:40;;;;;;;128.10;17.80;;;6.00;99.90;;;;;;5036844;28;20283;-69
2021/10/09 03:11:08;;;;;;;115.07;15.35;;;6.10;99.90;;;;;;5037156;28;20028;-69
2021/10/09 03:13:35;;;;;;;64.85;15.43;;;6.10;99.90;;;;;;5019554;28;20021;-69
2021/10/09 03:16:03;;;;;;;123.72;19.40;;;6.20;99.90;;;;;;5037575;28;20104;-69
2021/10/09 03:18:30;;;;;;;106.25;17.05;;;6.20;99.90;;;;;;5037370;28;20029;-69
2021/10/09 03:20:57;;;;;;;103.78;17.67;;;6.30;99.90;;;;;;5037534;28;20013;-68
2021/10/09 03:23:25;;;;;;;138.27;19.77;;;6.30;99.90;;;;;;5037465;28;20028;-69
2021/10/09 03:25:52;;;;;;;162.40;20.13;;;6.40;99.90;;;;;;5036762;28;20049;-69
2021/10/09 03:28:19;;;;;;;122.18;20.52;;;6.40;99.90;;;;;;5037599;28;20022;-69
2021/10/09 03:30:46;;;;;;;126.72;19.55;;;6.40;99.90;;;;;;5038324;28;20029;-69
2021/10/09 03:33:14;;;;;;;78.00;18.52;;;6.50;99.90;;;;;;5020193;28;20032;-69
2021/10/09 03:35:42;;;;;;;89.53;20.35;;;6.50;99.90;;;;;;5038142;28;20025;-69
2021/10/09 03:38:10;;;;;;;117.80;18.95;;;6.60;99.90;;;;;;5037663;28;20057;-69
2021/10/09 03:40:39;;;;;;;88.90;20.00;;;6.60;99.90;;;;;;5037619;28;20025;-69
2021/10/09 03:43:10;;;;;;;113.47;20.55;;;6.60;99.90;;;;;;5037663;28;20318;-69
2021/10/09 03:46:24;;;;;;;156.07;22.05;;;6.70;99.90;;;;;;5037927;28;20071;-69
2021/10/09 03:48:42;;;;;;;123.60;20.25;;;6.70;99.90;;;;;;5025507;28;20109;-69
2021/10/09 03:53:56;;;;;;;134.43;21.52;;;6.80;99.90;;;;;;5036797;28;20036;-69
2021/10/09 03:56:24;;;;;;;132.32;22.50;;;6.80;99.90;;;;;;5018945;28;20037;-69
2021/10/09 03:58:51;;;;;;;185.85;22.20;;;6.80;99.90;;;;;;5036969;28;20402;-69
2021/10/09 04:01:19;;;;;;;177.05;23.75;;;6.80;99.90;;;;;;5036627;28;20033;-69
2021/10/09 04:03:47;;;;;;;197.45;25.88;;;6.80;99.90;;;;;;5036777;28;20084;-69
2021/10/09 04:06:14;;;;;;;130.60;23.23;;;6.90;99.90;;;;;;5036392;28;20414;-69
2021/10/09 04:08:41;;;;;;;196.82;25.27;;;6.90;99.90;;;;;;5036341;28;20394;-69
2021/10/09 04:11:09;;;;;;;204.75;24.25;;;6.90;99.90;;;;;;5037907;28;20028;-69
2021/10/09 04:13:36;;;;;;;206.70;26.75;;;6.90;99.90;;;;;;5037740;28;20018;-69
2021/10/09 04:16:04;;;;;;;148.65;22.67;;;6.90;99.90;;;;;;5019687;28;20022;-69
2021/10/09 04:18:31;;;;;;;98.68;23.40;;;6.90;99.90;;;;;;5037780;28;20318;-69
2021/10/09 04:20:59;;;;;;;140.45;23.55;;;6.90;99.90;;;;;;5041722;28;20047;-68
2021/10/09 04:23:26;;;;;;;97.70;21.85;;;6.90;99.90;;;;;;5041349;28;20402;-69
2021/10/09 04:25:54;;;;;;;106.55;22.80;;;6.90;99.90;;;;;;5041088;28;20029;-69
2021/10/09 04:28:21;;;;;;;105.22;22.42;;;6.90;99.90;;;;;;5040828;28;20018;-69
2021/10/09 04:30:49;;;;;;;113.85;22.63;;;6.90;99.90;;;;;;5040108;28;20088;-69
2021/10/09 04:33:16;;;;;;;125.47;25.77;;;7.00;99.90;;;;;;5023231;28;20107;-69
2021/10/09 04:35:44;;;;;;;159.32;27.67;;;7.00;99.90;;;;;;5040552;28;20017;-69
2021/10/09 04:38:12;;;;;;;210.82;24.88;;;7.00;99.90;;;;;;5040198;28;20033;-69
2021/10/09 04:40:41;;;;;;;128.85;24.70;;;7.00;99.90;;;;;;5040196;28;20036;-69
2021/10/09 04:43:08;;;;;;;125.40;24.52;;;7.00;99.90;;;;;;5040211;28;20028;-68
2021/10/09 04:45:36;;;;;;;124.82;26.27;;;7.00;99.90;;;;;;5039992;28;20021;-69
2021/10/09 04:48:05;;;;;;;102.45;25.75;;;7.00;99.90;;;;;;5039985;28;20017;-69
2021/10/09 04:50:33;;;;;;;149.40;25.98;;;7.00;99.90;;;;;;5039753;28;20040;-70
2021/10/09 04:53:00;;;;;;;114.43;25.75;;;7.00;99.90;;;;;;5041167;28;20021;-69
2021/10/09 04:55:27;;;;;;;119.72;25.10;;;7.00;99.90;;;;;;5041105;28;20021;-69
2021/10/09 04:57:55;;;;;;;137.45;25.92;;;7.00;99.90;;;;;;5023158;28;20028;-69
2021/10/09 05:00:23;;;;;;;177.82;26.27;;;7.00;99.90;;;;;;5022950;28;20088;-68
2021/10/09 05:02:51;;;;;;;120.68;24.60;;;7.00;99.90;;;;;;5040523;28;20037;-69
2021/10/09 05:05:18;;;;;;;142.02;25.02;;;7.10;99.90;;;;;;5040358;28;20018;-69
2021/10/09 05:07:45;;;;;;;131.13;24.83;;;7.00;99.90;;;;;;5041086;28;20029;-69
2021/10/09 05:10:13;;;;;;;131.07;25.42;;;7.10;99.90;;;;;;5022717;28;20017;-69
2021/10/09 05:12:41;;;;;;;119.63;24.77;;;7.10;99.90;;;;;;5040195;28;20318;-69
2021/10/09 05:15:09;;;;;;;110.25;24.83;;;7.10;99.90;;;;;;5039543;28;20384;-69
2021/10/09 05:17:38;;;;;;;117.03;27.38;;;7.10;99.90;;;;;;5040014;28;20018;-69
2021/10/09 05:20:06;;;;;;;82.40;23.17;;;7.10;99.90;;;;;;5039668;28;20025;-69
2021/10/09 05:22:33;;;;;;;99.15;25.83;;;7.10;99.90;;;;;;5039779;28;20083;-69
2021/10/09 05:25:02;;;;;;;73.53;24.40;;;7.10;99.90;;;;;;5039562;28;20033;-69
2021/10/09 05:27:31;;;;;;;79.38;25.75;;;7.10;99.90;;;;;;5039190;28;20100;-69
2021/10/09 05:30:05;;;;;;;149.55;26.88;;;7.10;99.90;;;;;;5037992;28;20046;-69
2021/10/09 05:32:36;;;;;;;115.10;24.70;;;7.10;99.90;;;;;;5038887;28;20018;-69
2021/10/09 05:35:04;;;;;;;77.10;24.08;;;7.20;99.90;;;;;;5039832;28;20383;-68
2021/10/09 05:37:32;;;;;;;111.53;24.42;;;7.10;99.90;;;;;;5040555;28;20053;-69
2021/10/09 05:39:59;;;;;;;82.53;24.65;;;7.20;99.90;;;;;;5039786;28;20022;-70
2021/10/09 05:42:27;;;;;;;105.43;25.60;;;7.20;99.90;;;;;;5039821;28;20056;-69
2021/10/09 05:44:54;;;;;;;85.38;25.15;;;7.20;99.90;;;;;;5022044;28;20026;-70
2021/10/09 05:47:22;;;;;;;70.50;23.83;;;7.20;99.90;;;;;;5040105;28;20341;-70
2021/10/09 05:49:54;;;;;;;71.00;23.63;;;7.20;99.90;;;;;;5039625;28;20017;-71
2021/10/09 05:52:32;;;;;;;131.38;27.92;;;7.20;99.90;;;;;;5040051;28;20166;-72
2021/10/09 05:55:15;;;;;;;67.97;23.63;;;7.20;99.90;;;;;;5038290;28;20033;-71
2021/10/09 05:58:07;;;;;;;64.47;22.77;;;7.20;99.90;;;;;;5038726;28;20081;-70
2021/10/09 06:25:46;;;;;;;73.65;20.10;;;7.10;99.90;;;;;;5039052;28;20032;-68
2021/10/09 07:00:52;;;;;;;120.97;19.52;;;6.80;99.90;;;;;;4999128;28;20453;-70
2021/10/09 07:03:22;;;;;;;87.45;17.67;;;6.70;99.90;;;;;;4998750;28;20415;-68
2021/10/09 07:05:51;;;;;;;75.28;18.73;;;6.70;99.90;;;;;;4997698;28;20030;-69
2021/10/09 07:08:18;;;;;;;95.38;18.73;;;6.70;99.90;;;;;;4998822;28;20038;-69
2021/10/09 07:10:48;;;;;;;90.20;17.77;;;6.70;99.90;;;;;;4998714;28;20123;-69
2021/10/09 07:13:16;;;;;;;112.82;20.38;;;6.70;99.90;;;;;;4999373;28;20315;-68
2021/10/09 07:15:44;;;;;;;66.70;16.98;;;6.80;99.90;;;;;;4997558;28;20057;-68
2021/10/09 07:18:13;;;;;;;115.97;18.67;;;6.80;99.90;;;;;;4981405;28;20034;-69
2021/10/09 07:20:42;;;;;;;93.38;18.05;;;6.80;99.90;;;;;;4999113;28;20065;-69
2021/10/09 07:23:11;;;;;;;67.38;16.75;;;6.90;99.90;;;;;;4997632;28;20033;-69
2021/10/09 07:25:39;;;;;;;112.65;20.50;;;6.90;99.90;;;;;;4998408;28;20026;-69
2021/10/09 07:28:07;;;;;;;95.57;17.98;;;6.90;99.90;;;;;;4996723;28;20058;-69
2021/10/09 07:30:35;;;;;;;99.53;19.95;;;7.00;99.90;;;;;;5036191;28;20044;-68
2021/10/09 07:33:02;;;;;;;45.65;15.55;;;7.00;99.90;;;;;;5038346;28;20021;-69
2021/10/09 07:35:30;;;;;;;80.53;16.98;;;7.10;99.90;;;;;;5038326;28;20021;-68
2021/10/09 07:37:58;;;;;;;97.10;16.92;;;7.20;99.90;;;;;;5020326;28;20441;-68
2021/10/09 07:40:26;;;;;;;57.58;16.13;;;7.30;99.90;;;;;;5038245;28;20029;-68
2021/10/09 07:42:54;;;;;;;58.10;17.17;;;7.30;99.90;;;;;;5038004;28;20414;-68
2021/10/09 07:45:21;;;;;;;42.75;16.17;;;7.30;99.90;;;;;;5037590;28;20029;-68
2021/10/09 07:47:49;;;;;;;41.83;16.67;;;7.30;99.90;;;;;;5037831;28;20152;-68
2021/10/09 07:50:16;;;;;;;36.30;16.35;;;7.30;99.90;;;;;;5037993;28;20295;-68
2021/10/09 07:52:44;;;;;;;30.20;14.02;;;7.30;99.90;;;;;;5019798;28;20017;-68
2021/10/09 07:55:12;;;;;;;21.65;14.07;;;7.30;99.90;;;;;;5037195;28;20119;-68
2021/10/09 07:57:41;;;;;;;29.08;14.57;;;7.30;99.90;;;;;;5038196;28;20314;-68
2021/10/09 08:00:09;;;;;;;29.00;15.65;;;7.20;99.90;;;;;;5037489;28;20049;-68
2021/10/09 08:02:38;;;;;;;30.80;17.60;;;7.20;99.90;;;;;;5038061;28;20036;-68
2021/10/09 08:05:06;;;;;;;33.50;16.80;;;7.30;99.90;;;;;;5019643;28;20025;-68
2021/10/09 08:07:47;;;;;;;44.90;20.20;;;7.30;99.90;;;;;;5019893;28;20060;-68
2021/10/09 08:10:15;;;;;;;39.90;21.45;;;7.30;99.90;;;;;;5037064;28;20018;-69
2021/10/09 08:12:42;;;;;;;34.55;20.15;;;7.40;99.90;;;;;;5037401;28;20356;-68
2021/10/09 08:15:10;;;;;;;40.00;20.23;;;7.40;99.90;;;;;;5037010;28;20441;-69
2021/10/09 08:17:37;;;;;;;36.15;19.40;;;7.50;99.90;;;;;;5037457;28;20038;-68
2021/10/09 08:20:06;;;;;;;33.17;17.70;;;7.50;99.90;;;;;;5037285;28;20072;-68
2021/10/09 08:22:38;;;;;;;33.25;18.75;;;7.60;99.90;;;;;;5037846;28;20022;-69
2021/10/09 08:25:28;;;;;;;33.13;18.75;;;7.60;99.90;;;;;;5037570;28;20350;-68
2021/10/09 08:41:10;;;;;;;35.42;18.10;;;7.70;99.90;;;;;;5037036;28;20030;-68
2021/10/09 08:43:37;;;;;;;35.90;18.73;;;7.70;99.90;;;;;;5019442;28;20029;-69
2021/10/09 08:46:05;;;;;;;35.88;19.75;;;7.70;99.90;;;;;;5036993;28;20079;-68
2021/10/09 08:48:40;;;;;;;37.97;19.23;;;7.70;99.90;;;;;;5019495;28;20088;-69
2021/10/09 08:51:09;;;;;;;42.10;18.80;;;7.80;99.90;;;;;;5037721;28;20017;-68
2021/10/09 08:53:42;;;;;;;37.30;19.52;;;7.80;99.90;;;;;;5018551;28;20021;-67
2021/10/09 08:56:31;;;;;;;37.00;19.50;;;7.80;99.90;;;;;;5037052;28;20052;-69
2021/10/09 08:59:29;;;;;;;35.03;18.63;;;7.90;99.90;;;;;;5036990;28;20025;-68
2021/10/09 09:07:54;;;;;;;35.78;20.55;;;8.10;99.90;;;;;;5040944;28;20044;-68
2021/10/09 09:27:32;;;;;;;36.67;17.75;;;8.70;99.90;;;;;;5040585;28;20330;-68
2021/10/09 09:41:23;;;;;;;31.50;17.20;;;9.00;99.90;;;;;;5039837;28;20449;-69
2021/10/09 09:43:54;;;;;;;31.25;17.73;;;9.10;99.90;;;;;;5039919;28;20031;-69
2021/10/09 09:46:23;;;;;;;36.28;16.80;;;9.10;99.90;;;;;;5040119;28;20303;-66
2021/10/09 09:48:51;;;;;;;32.67;17.88;;;9.20;99.90;;;;;;5039476;28;20034;-66
2021/10/09 09:51:21;;;;;;;33.83;17.92;;;9.30;99.90;;;;;;5039626;28;20024;-66
2021/10/09 09:53:50;;;;;;;32.75;16.27;;;9.40;99.90;;;;;;5039538;28;20022;-66
2021/10/09 09:56:19;;;;;;;30.27;15.40;;;9.50;99.90;;;;;;5039637;28;20018;-65
2021/10/09 09:59:00;;;;;;;29.23;15.65;;;9.60;99.90;;;;;;5039369;28;20128;-66
2021/10/09 10:01:35;;;;;;;33.80;15.30;;;9.70;99.90;;;;;;5039473;28;20025;-66
2021/10/09 10:04:03;;;;;;;27.85;15.85;;;9.70;99.90;;;;;;5039473;28;20026;-65
2021/10/09 10:06:30;;;;;;;30.42;15.93;;;9.90;99.90;;;;;;5021880;28;20033;-66
2021/10/09 10:08:58;;;;;;;34.17;14.80;;;9.90;99.90;;;;;;5039260;28;20414;-65
2021/10/09 10:11:27;;;;;;;32.13;15.68;;;10.00;99.90;;;;;;5039783;28;20109;-66
2021/10/09 10:13:56;;;;;;;28.30;14.80;;;10.00;99.90;;;;;;5039110;28;20021;-65
2021/10/09 10:16:25;;;;;;;30.73;15.70;;;10.10;99.90;;;;;;5038666;28;20044;-65
2021/10/09 10:18:54;;;;;;;32.47;16.13;;;10.20;99.90;;;;;;5021549;28;20389;-66
2021/10/09 10:21:37;;;;;;;25.02;13.35;;;10.30;99.90;;;;;;5039311;28;20391;-65
2021/10/09 10:24:11;;;;;;;24.13;13.10;;;10.30;99.90;;;;;;5039475;28;20022;-68
2021/10/09 10:26:38;;;;;;;24.55;12.70;;;10.40;99.90;;;;;;5039287;28;20025;-68
2021/10/09 10:29:06;;;;;;;24.63;12.18;;;10.40;99.90;;;;;;5039059;28;20045;-69
2021/10/09 10:31:35;;;;;;;24.13;11.57;;;10.60;99.90;;;;;;5039643;28;20086;-67
2021/10/09 10:34:21;;;;;;;22.98;11.32;;;10.60;99.90;;;;;;5039224;28;20022;-67
2021/10/09 10:36:49;;;;;;;18.98;11.40;;;10.70;99.90;;;;;;5038856;28;20064;-67
2021/10/09 10:39:21;;;;;;;21.48;11.32;;;10.80;99.90;;;;;;5038709;28;20387;-68
2021/10/09 10:42:01;;;;;;;19.50;10.70;;;10.90;99.90;;;;;;5039447;28;20018;-68
2021/10/09 10:45:14;;;;;;;20.27;10.90;;;11.00;99.90;;;;;;5038783;28;20029;-67
2021/10/09 10:47:59;;;;;;;18.00;8.93;;;11.10;99.90;;;;;;5038885;28;20096;-68
2021/10/09 10:50:55;;;;;;;18.02;9.73;;;11.20;99.90;;;;;;5038651;28;20024;-68
2021/10/09 10:53:48;;;;;;;18.60;9.25;;;11.40;99.90;;;;;;5038895;28;20013;-68
2021/10/09 10:56:16;;;;;;;18.88;10.23;;;11.50;99.90;;;;;;5038449;28;20045;-68
2021/10/09 10:58:43;;;;;;;17.75;9.13;;;11.60;99.90;;;;;;5038753;28;20068;-74
2021/10/09 11:01:24;;;;;;;22.48;8.68;;;11.60;99.90;;;;;;5037487;28;20107;-68
2021/10/09 11:03:54;;;;;;;16.58;9.50;;;11.70;99.90;;;;;;5037863;28;20037;-68
2021/10/09 11:06:24;;;;;;;15.60;8.25;;;11.80;99.90;;;;;;5038244;28;20483;-68
2021/10/09 11:08:52;;;;;;;17.40;9.48;;;11.90;99.90;;;;;;5038093;28;20033;-68
2021/10/09 11:11:42;;;;;;;17.98;10.10;;;11.90;99.90;;;;;;5020569;28;20109;-69
2021/10/09 11:14:22;;;;;;;19.70;9.10;;;12.00;99.90;;;;;;5038864;28;20022;-68
2021/10/09 11:16:59;;;;;;;16.20;8.00;;;12.10;99.90;;;;;;5038653;28;20021;-69
2021/10/09 11:19:42;;;;;;;14.93;7.85;;;12.10;99.90;;;;;;5037863;28;20104;-69
2021/10/09 11:22:12;;;;;;;14.60;7.40;;;12.20;99.90;;;;;;5038094;28;20025;-69
2021/10/09 11:24:43;;;;;;;16.60;9.05;;;12.30;99.90;;;;;;5037741;28;20030;-68
2021/10/09 11:27:11;;;;;;;20.10;8.95;;;12.30;99.90;;;;;;5038521;28;20025;-69
2021/10/09 11:29:40;;;;;;;15.50;7.95;;;12.40;99.90;;;;;;5016134;28;20140;-69
2021/10/09 11:32:10;;;;;;;15.82;8.48;;;12.50;99.90;;;;;;5018075;28;20017;-68
2021/10/09 11:34:49;;;;;;;16.83;7.78;;;12.60;99.90;;;;;;5016884;28;20026;-68
2021/10/09 11:37:17;;;;;;;13.05;7.28;;;12.60;99.90;;;;;;5017016;28;20322;-69
2021/10/09 11:39:53;;;;;;;15.73;9.27;;;12.70;99.90;;;;;;5018458;28;20041;-68
2021/10/09 11:42:24;;;;;;;18.75;9.50;;;12.70;99.90;;;;;;5017788;28;20036;-68
2021/10/09 11:45:21;;;;;;;15.52;8.70;;;12.80;99.90;;;;;;5017409;28;20113;-68
2021/10/09 11:54:05;;;;;;;18.65;10.00;;;13.00;99.90;;;;;;5018300;28;20037;-68
2021/10/09 11:56:43;;;;;;;18.35;8.85;;;13.00;99.90;;;;;;5017787;28;20097;-68
2021/10/09 11:59:16;;;;;;;18.73;10.32;;;13.10;99.90;;;;;;5017769;28;20041;-68
2021/10/09 12:01:47;;;;;;;16.80;9.45;;;13.10;99.90;;;;;;5017823;28;20026;-69
2021/10/09 12:04:29;;;;;;;15.48;8.90;;;13.10;99.90;;;;;;5017468;28;20051;-69
2021/10/09 12:07:01;;;;;;;16.65;9.60;;;13.20;99.90;;;;;;5016588;28;20022;-68
2021/10/09 12:10:00;;;;;;;16.20;8.43;;;13.20;99.90;;;;;;5017582;28;20105;-68
2021/10/09 12:12:33;;;;;;;18.50;10.00;;;13.20;99.90;;;;;;5017759;28;20022;-68
2021/10/09 12:15:02;;;;;;;18.60;9.15;;;13.20;99.90;;;;;;5017551;28;20030;-68
2021/10/09 12:17:39;;;;;;;24.92;9.25;;;13.30;99.90;;;;;;5018084;28;20072;-69
2021/10/09 12:20:10;;;;;;;17.85;9.02;;;13.30;99.90;;;;;;5017418;28;20022;-69
2021/10/09 12:22:52;;;;;;;18.52;8.70;;;13.40;99.90;;;;;;5016868;28;20038;-69
2021/10/09 12:25:34;;;;;;;18.00;8.43;;;13.40;99.90;;;;;;5020264;28;20117;-69
2021/10/09 12:28:06;;;;;;;22.67;9.75;;;13.50;99.90;;;;;;5017449;28;20489;-68
2021/10/09 12:30:44;;;;;;;21.02;8.57;;;13.50;99.90;;;;;;5016180;28;20046;-68
2021/10/09 12:33:33;;;;;;;17.05;8.50;;;13.60;99.90;;;;;;5017869;28;20025;-68
2021/10/09 12:36:31;;;;;;;15.23;8.35;;;13.60;99.90;;;;;;5096625;23;20056;-68
2021/10/09 12:39:21;;;;;;;15.60;8.50;;;13.60;99.90;;;;;;5017147;28;20026;-68
2021/10/09 12:41:51;;;;;;;21.48;8.18;;;13.70;99.90;;;;;;5021816;28;20426;-68
2021/10/09 12:44:19;;;;;;;17.63;8.30;;;13.70;99.90;;;;;;5021501;28;20109;-68
2021/10/09 12:46:46;;;;;;;15.25;8.38;;;13.80;99.90;;;;;;5021074;28;20045;-68
2021/10/09 12:49:13;;;;;;;16.80;8.57;;;13.80;99.90;;;;;;5021439;28;20026;-68
2021/10/09 12:51:42;;;;;;;15.88;8.23;;;13.90;99.90;;;;;;5020031;28;20030;-68
2021/10/09 12:54:09;;;;;;;19.27;7.63;;;13.90;99.90;;;;;;5021167;28;20018;-69
2021/10/09 12:56:38;;;;;;;13.10;7.05;;;14.00;99.90;;;;;;5020873;28;20046;-70
2021/10/09 12:59:05;;;;;;;16.90;7.40;;;14.10;99.90;;;;;;5021403;28;20369;-71
2021/10/09 13:01:33;;;;;;;12.45;6.60;;;14.10;99.90;;;;;;5021291;28;20045;-71
2021/10/09 13:04:00;;;;;;;12.75;6.57;;;14.20;99.70;;;;;;5020634;28;20022;-71
2021/10/09 13:06:28;;;;;;;14.50;7.40;;;14.30;99.60;;;;;;5020545;28;20018;-71
2021/10/09 13:08:55;;;;;;;13.25;6.68;;;14.30;99.70;;;;;;5021087;28;20026;-71
2021/10/09 13:11:26;;;;;;;17.58;7.07;;;14.40;99.30;;;;;;5020815;28;20469;-71
2021/10/09 13:13:54;;;;;;;17.38;6.80;;;14.40;99.20;;;;;;5019682;28;20026;-71
2021/10/09 13:16:21;;;;;;;15.10;6.07;;;14.50;98.30;;;;;;5019700;28;20108;-71
2021/10/09 13:18:49;;;;;;;12.82;6.28;;;14.60;97.20;;;;;;5020536;28;20326;-71
2021/10/09 13:21:16;;;;;;;15.73;6.88;;;14.60;97.20;;;;;;5020787;28;20318;-71
2021/10/09 13:23:44;;;;;;;15.98;8.15;;;14.70;97.00;;;;;;5020390;28;20026;-71
2021/10/09 13:26:12;;;;;;;12.88;6.57;;;14.70;97.00;;;;;;5020349;28;20033;-71
2021/10/09 13:28:40;;;;;;;11.68;6.60;;;14.80;97.10;;;;;;5020239;28;20101;-71
2021/10/09 13:31:07;;;;;;;13.75;6.70;;;14.80;96.90;;;;;;5020316;28;20088;-71
2021/10/09 13:33:35;;;;;;;14.77;6.43;;;14.90;96.40;;;;;;5019394;28;20022;-71
2021/10/09 13:36:05;;;;;;;17.15;6.95;;;14.90;95.90;;;;;;5022902;28;20040;-70
2021/10/09 13:38:34;;;;;;;15.23;7.13;;;15.00;95.70;;;;;;5140174;22;20042;-70
2021/10/09 13:41:02;;;;;;;16.00;7.38;;;15.10;95.90;;;;;;5040079;28;20097;-70
2021/10/09 13:43:30;;;;;;;16.35;7.40;;;15.20;95.60;;;;;;5039902;28;20029;-68
2021/10/09 13:45:58;;;;;;;17.50;6.85;;;15.40;95.20;;;;;;5021902;28;20083;-69
2021/10/09 13:48:26;;;;;;;13.77;7.00;;;15.60;94.60;;;;;;5039582;28;20028;-69
2021/10/09 13:50:54;;;;;;;14.35;7.65;;;16.00;94.10;;;;;;5021355;28;20376;-69
2021/10/09 13:53:22;;;;;;;13.23;7.10;;;16.60;93.30;;;;;;5039715;28;20310;-70
2021/10/09 13:55:50;;;;;;;13.25;6.97;;;17.50;92.10;;;;;;5039267;28;20026;-71
2021/10/09 13:58:21;;;;;;;15.07;6.75;;;18.40;90.00;;;;;;5021972;28;20022;-71
2021/10/09 14:00:49;;;;;;;14.38;6.45;;;19.30;86.70;;;;;;5039425;28;20321;-71
2021/10/09 14:03:17;;;;;;;15.63;7.00;;;20.10;82.60;;;;;;5039519;28;20025;-70
2021/10/09 14:05:44;;;;;;;12.68;7.25;;;20.70;77.70;;;;;;5039629;28;20113;-71
2021/10/09 14:08:12;;;;;;;10.75;6.95;;;21.40;75.10;;;;;;5039654;28;20337;-71
2021/10/09 14:10:41;;;;;;;11.70;6.18;;;21.80;72.00;;;;;;5021765;28;20028;-70
2021/10/09 14:13:11;;;;;;;12.77;7.03;;;22.20;70.30;;;;;;5039457;28;20028;-71
2021/10/09 14:15:40;;;;;;;17.77;6.85;;;22.60;68.30;;;;;;5039439;28;20104;-71
2021/10/09 14:18:09;;;;;;;15.23;7.13;;;23.00;65.40;;;;;;5021517;28;20036;-71
2021/10/09 14:20:36;;;;;;;12.93;6.93;;;23.30;64.30;;;;;;5038950;28;20333;-70
2021/10/09 14:23:04;;;;;;;12.57;6.80;;;23.50;62.60;;;;;;5039610;28;20025;-71
2021/10/09 14:25:31;;;;;;;10.77;6.07;;;23.60;61.30;;;;;;5039153;28;20413;-70
2021/10/09 14:28:03;;;;;;;10.25;6.05;;;23.70;60.50;;;;;;5038583;28;20022;-70
2021/10/09 14:30:32;;;;;;;14.05;6.82;;;23.70;59.60;;;;;;5038536;28;20075;-71
2021/10/09 14:32:59;;;;;;;15.32;6.95;;;23.70;59.40;;;;;;5038010;28;20029;-71
2021/10/09 14:35:27;;;;;;;12.32;6.30;;;23.80;59.50;;;;;;5038169;28;20100;-71
2021/10/09 14:37:55;;;;;;;14.88;6.38;;;24.00;59.20;;;;;;5009760;28;20050;-71
2021/10/09 14:40:23;;;;;;;15.57;6.75;;;24.10;58.50;;;;;;5001152;28;20445;-71
2021/10/09 14:42:50;;;;;;;13.57;6.28;;;24.20;57.70;;;;;;5000542;28;20338;-71
2021/10/09 14:45:18;;;;;;;12.15;6.70;;;24.30;56.90;;;;;;5017853;28;20164;-70
2021/10/09 14:47:54;;;;;;;12.40;6.68;;;24.40;56.20;;;;;;5018605;28;20314;-70
2021/10/09 14:53:14;;;;;;;13.70;6.70;;;24.40;55.20;;;;;;5018704;28;20018;-68
2021/10/09 14:56:03;;;;;;;10.07;6.13;;;24.40;55.20;;;;;;5018468;28;20065;-68